sensor_id;sensor_type;location;lat;lon;timestamp;temperature;humidity
50544;DHT22;41176;44.032;20.900;2023-09-07T00:00:22;18.30;99.90
50544;DHT22;41176;44.032;20.900;2023-09-07T00:02:48;18.40;99.90
50544;DHT22;41176;44.032;20.900;2023-09-07T00:05:14;18.40;99.90
50544;DHT22;41176;44.032;20.900;2023-09-07T00:07:40;18.20;99.90
50544;DHT22;41176;44.032;20.900;2023-09-07T00:10:06;18.20;99.90
50544;DHT22;41176;44.032;20.900;2023-09-07T00:12:33;18.10;99.90
50544;DHT22;41176;44.032;20.900;2023-09-07T00:14:58;18.20;99.90
50544;DHT22;41176;44.032;20.900;2023-09-07T00:17:25;18.20;99.90
50544;DHT22;41176;44.032;20.900;2023-09-07T00:19:51;18.20;99.90
50544;DHT22;41176;44.032;20.900;2023-09-07T00:22:18;18.20;99.90
50544;DHT22;41176;44.032;20.900;2023-09-07T00:24:44;18.30;99.90
50544;DHT22;41176;44.032;20.900;2023-09-07T00:27:10;18.40;99.90
50544;DHT22;41176;44.032;20.900;2023-09-07T00:29:40;18.40;99.90
50544;DHT22;41176;44.032;20.900;2023-09-07T00:32:06;18.40;99.90
50544;DHT22;41176;44.032;20.900;2023-09-07T00:34:31;18.40;99.90
50544;DHT22;41176;44.032;20.900;2023-09-07T00:36:57;18.40;99.90
50544;DHT22;41176;44.032;20.900;2023-09-07T00:39:23;18.30;99.90
50544;DHT22;41176;44.032;20.900;2023-09-07T00:41:49;18.20;99.90
50544;DHT22;41176;44.032;20.900;2023-09-07T00:44:14;18.20;99.90
50544;DHT22;41176;44.032;20.900;2023-09-07T00:46:40;18.20;99.90
50544;DHT22;41176;44.032;20.900;2023-09-07T00:49:06;18.10;99.90
50544;DHT22;41176;44.032;20.900;2023-09-07T00:51:32;18.10;99.90
50544;DHT22;41176;44.032;20.900;2023-09-07T00:53:58;18.00;99.90
50544;DHT22;41176;44.032;20.900;2023-09-07T00:56:25;18.00;99.90
50544;DHT22;41176;44.032;20.900;2023-09-07T00:58:52;17.90;99.90
50544;DHT22;41176;44.032;20.900;2023-09-07T01:01:20;17.90;99.90
50544;DHT22;41176;44.032;20.900;2023-09-07T01:03:47;17.90;99.90
50544;DHT22;41176;44.032;20.900;2023-09-07T01:06:22;18.00;99.90
50544;DHT22;41176;44.032;20.900;2023-09-07T01:08:51;17.90;99.90
50544;DHT22;41176;44.032;20.900;2023-09-07T01:11:18;17.80;99.90
50544;DHT22;41176;44.032;20.900;2023-09-07T01:13:48;17.80;99.90
50544;DHT22;41176;44.032;20.900;2023-09-07T01:16:14;17.80;99.90
50544;DHT22;41176;44.032;20.900;2023-09-07T01:18:41;17.80;99.90
50544;DHT22;41176;44.032;20.900;2023-09-07T01:21:08;17.70;99.90
50544;DHT22;41176;44.032;20.900;2023-09-07T01:23:40;17.70;99.90
50544;DHT22;41176;44.032;20.900;2023-09-07T01:26:07;17.70;99.90
50544;DHT22;41176;44.032;20.900;2023-09-07T01:28:33;17.80;99.90
50544;DHT22;41176;44.032;20.900;2023-09-07T01:30:59;17.70;99.90
50544;DHT22;41176;44.032;20.900;2023-09-07T01:33:25;17.70;99.90
50544;DHT22;41176;44.032;20.900;2023-09-07T01:35:51;17.70;99.90
50544;DHT22;41176;44.032;20.900;2023-09-07T01:38:16;17.80;99.90
50544;DHT22;41176;44.032;20.900;2023-09-07T01:40:42;17.90;99.90
50544;DHT22;41176;44.032;20.900;2023-09-07T01:43:08;17.80;99.90
50544;DHT22;41176;44.032;20.900;2023-09-07T01:45:34;17.80;99.90
50544;DHT22;41176;44.032;20.900;2023-09-07T01:48:00;17.90;99.90
50544;DHT22;41176;44.032;20.900;2023-09-07T01:50:25;17.90;99.90
50544;DHT22;41176;44.032;20.900;2023-09-07T01:52:52;18.00;99.90
50544;DHT22;41176;44.032;20.900;2023-09-07T01:55:18;18.00;99.90
50544;DHT22;41176;44.032;20.900;2023-09-07T01:57:44;18.00;99.90
50544;DHT22;41176;44.032;20.900;2023-09-07T02:00:10;18.00;99.90
50544;DHT22;41176;44.032;20.900;2023-09-07T02:02:36;18.10;99.90
50544;DHT22;41176;44.032;20.900;2023-09-07T02:05:03;18.00;99.90
50544;DHT22;41176;44.032;20.900;2023-09-07T02:07:29;18.10;99.90
50544;DHT22;41176;44.032;20.900;2023-09-07T02:09:55;18.10;99.90
50544;DHT22;41176;44.032;20.900;2023-09-07T02:12:20;18.10;99.90
50544;DHT22;41176;44.032;20.900;2023-09-07T02:14:46;18.00;99.90
50544;DHT22;41176;44.032;20.900;2023-09-07T02:17:12;18.00;99.90
50544;DHT22;41176;44.032;20.900;2023-09-07T02:19:43;18.00;99.90
50544;DHT22;41176;44.032;20.900;2023-09-07T02:22:09;18.10;99.90
50544;DHT22;41176;44.032;20.900;2023-09-07T02:24:35;17.90;99.90
50544;DHT22;41176;44.032;20.900;2023-09-07T02:27:00;17.90;99.90
50544;DHT22;41176;44.032;20.900;2023-09-07T02:29:26;18.00;99.90
50544;DHT22;41176;44.032;20.900;2023-09-07T02:31:52;17.90;99.90
50544;DHT22;41176;44.032;20.900;2023-09-07T02:34:18;17.90;99.90
50544;DHT22;41176;44.032;20.900;2023-09-07T02:36:44;17.80;99.90
50544;DHT22;41176;44.032;20.900;2023-09-07T02:39:10;17.60;99.90
50544;DHT22;41176;44.032;20.900;2023-09-07T02:41:37;17.40;99.90
50544;DHT22;41176;44.032;20.900;2023-09-07T02:44:04;17.40;99.90
50544;DHT22;41176;44.032;20.900;2023-09-07T02:46:29;17.60;99.90
50544;DHT22;41176;44.032;20.900;2023-09-07T02:48:56;17.60;99.90
50544;DHT22;41176;44.032;20.900;2023-09-07T02:51:23;17.70;99.90
50544;DHT22;41176;44.032;20.900;2023-09-07T02:53:50;17.60;99.90
50544;DHT22;41176;44.032;20.900;2023-09-07T02:56:16;17.60;99.90
50544;DHT22;41176;44.032;20.900;2023-09-07T02:58:42;17.60;99.90
50544;DHT22;41176;44.032;20.900;2023-09-07T03:01:07;17.50;99.90
50544;DHT22;41176;44.032;20.900;2023-09-07T03:03:36;17.50;99.90
50544;DHT22;41176;44.032;20.900;2023-09-07T03:06:12;17.40;99.90
50544;DHT22;41176;44.032;20.900;2023-09-07T03:08:39;17.30;99.90
50544;DHT22;41176;44.032;20.900;2023-09-07T03:11:06;17.30;99.90
50544;DHT22;41176;44.032;20.900;2023-09-07T03:13:32;17.30;99.90
50544;DHT22;41176;44.032;20.900;2023-09-07T03:15:58;17.30;99.90
50544;DHT22;41176;44.032;20.900;2023-09-07T03:18:24;17.40;99.90
50544;DHT22;41176;44.032;20.900;2023-09-07T03:20:50;17.30;99.90
50544;DHT22;41176;44.032;20.900;2023-09-07T03:23:16;17.30;99.90
50544;DHT22;41176;44.032;20.900;2023-09-07T03:25:42;17.30;99.90
50544;DHT22;41176;44.032;20.900;2023-09-07T03:28:08;17.40;99.90
50544;DHT22;41176;44.032;20.900;2023-09-07T03:30:33;17.40;99.90
50544;DHT22;41176;44.032;20.900;2023-09-07T03:32:59;17.40;99.90
50544;DHT22;41176;44.032;20.900;2023-09-07T03:35:25;17.40;99.90
50544;DHT22;41176;44.032;20.900;2023-09-07T03:37:51;17.40;99.90
50544;DHT22;41176;44.032;20.900;2023-09-07T03:40:17;17.40;99.90
50544;DHT22;41176;44.032;20.900;2023-09-07T03:42:43;17.30;99.90
50544;DHT22;41176;44.032;20.900;2023-09-07T03:45:10;17.30;99.90
50544;DHT22;41176;44.032;20.900;2023-09-07T03:47:37;17.30;99.90
50544;DHT22;41176;44.032;20.900;2023-09-07T03:50:03;17.40;99.90
50544;DHT22;41176;44.032;20.900;2023-09-07T03:52:29;17.40;99.90
50544;DHT22;41176;44.032;20.900;2023-09-07T03:54:55;17.40;99.90
50544;DHT22;41176;44.032;20.900;2023-09-07T03:57:21;17.30;99.90
50544;DHT22;41176;44.032;20.900;2023-09-07T03:59:47;17.30;99.90
50544;DHT22;41176;44.032;20.900;2023-09-07T04:02:14;17.30;99.90
50544;DHT22;41176;44.032;20.900;2023-09-07T04:04:40;17.20;99.90
50544;DHT22;41176;44.032;20.900;2023-09-07T04:07:06;17.10;99.90
50544;DHT22;41176;44.032;20.900;2023-09-07T04:09:31;17.20;99.90
50544;DHT22;41176;44.032;20.900;2023-09-07T04:11:57;17.20;99.90
50544;DHT22;41176;44.032;20.900;2023-09-07T04:14:23;17.10;99.90
50544;DHT22;41176;44.032;20.900;2023-09-07T04:16:49;17.20;99.90
50544;DHT22;41176;44.032;20.900;2023-09-07T04:19:16;17.20;99.90
50544;DHT22;41176;44.032;20.900;2023-09-07T04:21:41;17.20;99.90
50544;DHT22;41176;44.032;20.900;2023-09-07T04:24:07;17.10;99.90
50544;DHT22;41176;44.032;20.900;2023-09-07T04:26:33;17.10;99.90
50544;DHT22;41176;44.032;20.900;2023-09-07T04:28:59;17.10;99.90
50544;DHT22;41176;44.032;20.900;2023-09-07T04:31:24;17.10;99.90
50544;DHT22;41176;44.032;20.900;2023-09-07T04:33:53;17.20;99.90
50544;DHT22;41176;44.032;20.900;2023-09-07T04:36:19;17.20;99.90
50544;DHT22;41176;44.032;20.900;2023-09-07T04:38:45;17.20;99.90
50544;DHT22;41176;44.032;20.900;2023-09-07T04:41:12;17.20;99.90
50544;DHT22;41176;44.032;20.900;2023-09-07T04:43:39;17.20;99.90
50544;DHT22;41176;44.032;20.900;2023-09-07T04:46:06;17.30;99.90
50544;DHT22;41176;44.032;20.900;2023-09-07T04:48:32;17.30;99.90
50544;DHT22;41176;44.032;20.900;2023-09-07T04:50:59;17.40;99.90
50544;DHT22;41176;44.032;20.900;2023-09-07T04:53:26;17.50;99.90
50544;DHT22;41176;44.032;20.900;2023-09-07T04:55:52;17.60;99.90
50544;DHT22;41176;44.032;20.900;2023-09-07T04:58:18;17.60;99.90
50544;DHT22;41176;44.032;20.900;2023-09-07T05:00:43;17.60;99.90
50544;DHT22;41176;44.032;20.900;2023-09-07T05:03:09;17.50;99.90
50544;DHT22;41176;44.032;20.900;2023-09-07T05:05:35;17.70;99.90
50544;DHT22;41176;44.032;20.900;2023-09-07T05:08:00;17.70;99.90
50544;DHT22;41176;44.032;20.900;2023-09-07T05:10:27;17.80;99.90
50544;DHT22;41176;44.032;20.900;2023-09-07T05:12:52;17.80;99.90
50544;DHT22;41176;44.032;20.900;2023-09-07T05:15:18;17.80;99.90
50544;DHT22;41176;44.032;20.900;2023-09-07T05:17:44;18.00;99.90
50544;DHT22;41176;44.032;20.900;2023-09-07T05:20:10;17.90;99.90
50544;DHT22;41176;44.032;20.900;2023-09-07T05:22:36;17.90;99.90
50544;DHT22;41176;44.032;20.900;2023-09-07T05:25:05;18.00;99.90
50544;DHT22;41176;44.032;20.900;2023-09-07T05:27:31;18.00;99.90
50544;DHT22;41176;44.032;20.900;2023-09-07T05:29:56;18.10;99.90
50544;DHT22;41176;44.032;20.900;2023-09-07T05:32:22;18.10;99.90
50544;DHT22;41176;44.032;20.900;2023-09-07T05:34:48;18.00;99.90
50544;DHT22;41176;44.032;20.900;2023-09-07T05:37:13;18.10;99.90
50544;DHT22;41176;44.032;20.900;2023-09-07T05:39:39;18.20;99.90
50544;DHT22;41176;44.032;20.900;2023-09-07T05:42:05;18.30;99.90
50544;DHT22;41176;44.032;20.900;2023-09-07T05:44:30;18.40;99.90
50544;DHT22;41176;44.032;20.900;2023-09-07T05:46:56;18.50;99.90
50544;DHT22;41176;44.032;20.900;2023-09-07T05:49:24;18.60;99.90
50544;DHT22;41176;44.032;20.900;2023-09-07T05:51:49;18.70;99.90
50544;DHT22;41176;44.032;20.900;2023-09-07T05:54:15;18.80;99.90
50544;DHT22;41176;44.032;20.900;2023-09-07T05:56:41;18.80;99.90
50544;DHT22;41176;44.032;20.900;2023-09-07T05:59:06;18.90;99.90
50544;DHT22;41176;44.032;20.900;2023-09-07T06:01:32;18.90;99.90
50544;DHT22;41176;44.032;20.900;2023-09-07T06:03:58;18.90;99.90
50544;DHT22;41176;44.032;20.900;2023-09-07T06:06:24;18.90;99.90
50544;DHT22;41176;44.032;20.900;2023-09-07T06:08:50;18.90;99.90
50544;DHT22;41176;44.032;20.900;2023-09-07T06:11:16;19.00;99.90
50544;DHT22;41176;44.032;20.900;2023-09-07T06:13:42;19.10;99.90
50544;DHT22;41176;44.032;20.900;2023-09-07T06:16:07;19.10;99.90
50544;DHT22;41176;44.032;20.900;2023-09-07T06:18:33;19.20;99.90
50544;DHT22;41176;44.032;20.900;2023-09-07T06:20:59;19.30;99.90
50544;DHT22;41176;44.032;20.900;2023-09-07T06:23:24;19.30;99.90
50544;DHT22;41176;44.032;20.900;2023-09-07T06:25:50;19.40;99.90
50544;DHT22;41176;44.032;20.900;2023-09-07T06:28:16;19.40;99.90
50544;DHT22;41176;44.032;20.900;2023-09-07T06:30:42;19.50;99.90
50544;DHT22;41176;44.032;20.900;2023-09-07T06:33:08;19.60;99.90
50544;DHT22;41176;44.032;20.900;2023-09-07T06:35:34;19.70;99.90
50544;DHT22;41176;44.032;20.900;2023-09-07T06:37:59;19.80;99.90
50544;DHT22;41176;44.032;20.900;2023-09-07T06:40:25;19.90;99.90
50544;DHT22;41176;44.032;20.900;2023-09-07T06:42:51;20.00;99.90
50544;DHT22;41176;44.032;20.900;2023-09-07T06:45:18;20.10;99.90
50544;DHT22;41176;44.032;20.900;2023-09-07T06:47:44;20.30;99.90
50544;DHT22;41176;44.032;20.900;2023-09-07T06:50:09;20.50;99.90
50544;DHT22;41176;44.032;20.900;2023-09-07T06:52:35;20.60;99.90
50544;DHT22;41176;44.032;20.900;2023-09-07T06:55:01;20.80;99.90
50544;DHT22;41176;44.032;20.900;2023-09-07T06:57:27;21.00;99.90
50544;DHT22;41176;44.032;20.900;2023-09-07T06:59:53;21.20;99.90
50544;DHT22;41176;44.032;20.900;2023-09-07T07:02:18;21.30;99.90
50544;DHT22;41176;44.032;20.900;2023-09-07T07:04:44;21.40;99.90
50544;DHT22;41176;44.032;20.900;2023-09-07T07:07:11;21.50;99.90
50544;DHT22;41176;44.032;20.900;2023-09-07T07:09:37;21.60;99.90
50544;DHT22;41176;44.032;20.900;2023-09-07T07:12:03;21.70;99.90
50544;DHT22;41176;44.032;20.900;2023-09-07T07:14:29;21.80;99.90
50544;DHT22;41176;44.032;20.900;2023-09-07T07:16:55;22.00;99.90
50544;DHT22;41176;44.032;20.900;2023-09-07T07:19:20;22.20;99.90
50544;DHT22;41176;44.032;20.900;2023-09-07T07:21:46;22.40;99.90
50544;DHT22;41176;44.032;20.900;2023-09-07T07:24:12;22.60;99.90
50544;DHT22;41176;44.032;20.900;2023-09-07T07:26:38;22.70;99.90
50544;DHT22;41176;44.032;20.900;2023-09-07T07:29:03;22.80;99.90
50544;DHT22;41176;44.032;20.900;2023-09-07T07:31:29;22.90;99.90
50544;DHT22;41176;44.032;20.900;2023-09-07T07:33:55;22.90;99.90
50544;DHT22;41176;44.032;20.900;2023-09-07T07:36:21;23.00;99.90
50544;DHT22;41176;44.032;20.900;2023-09-07T07:38:46;23.10;99.90
50544;DHT22;41176;44.032;20.900;2023-09-07T07:41:12;23.20;99.30
50544;DHT22;41176;44.032;20.900;2023-09-07T07:43:38;23.40;97.90
50544;DHT22;41176;44.032;20.900;2023-09-07T07:46:04;23.50;97.70
50544;DHT22;41176;44.032;20.900;2023-09-07T07:48:29;23.60;96.10
50544;DHT22;41176;44.032;20.900;2023-09-07T07:50:55;23.70;95.50
50544;DHT22;41176;44.032;20.900;2023-09-07T07:53:21;23.80;95.10
50544;DHT22;41176;44.032;20.900;2023-09-07T07:55:47;23.90;93.80
50544;DHT22;41176;44.032;20.900;2023-09-07T07:58:14;24.00;92.10
50544;DHT22;41176;44.032;20.900;2023-09-07T08:00:40;24.00;92.40
50544;DHT22;41176;44.032;20.900;2023-09-07T08:03:13;24.10;92.70
50544;DHT22;41176;44.032;20.900;2023-09-07T08:05:38;24.30;91.50
50544;DHT22;41176;44.032;20.900;2023-09-07T08:08:05;24.40;91.60
50544;DHT22;41176;44.032;20.900;2023-09-07T08:10:35;24.60;90.80
50544;DHT22;41176;44.032;20.900;2023-09-07T08:13:03;24.70;89.10
50544;DHT22;41176;44.032;20.900;2023-09-07T08:15:29;24.80;88.60
50544;DHT22;41176;44.032;20.900;2023-09-07T08:17:57;25.00;87.00
50544;DHT22;41176;44.032;20.900;2023-09-07T08:20:24;25.10;85.90
50544;DHT22;41176;44.032;20.900;2023-09-07T08:22:50;25.20;83.50
50544;DHT22;41176;44.032;20.900;2023-09-07T08:25:16;25.30;82.70
50544;DHT22;41176;44.032;20.900;2023-09-07T08:27:42;25.50;81.10
50544;DHT22;41176;44.032;20.900;2023-09-07T08:30:13;25.50;79.30
50544;DHT22;41176;44.032;20.900;2023-09-07T08:32:41;25.60;77.70
50544;DHT22;41176;44.032;20.900;2023-09-07T08:35:10;25.70;76.30
50544;DHT22;41176;44.032;20.900;2023-09-07T08:37:39;25.70;76.60
50544;DHT22;41176;44.032;20.900;2023-09-07T08:40:05;25.90;76.30
50544;DHT22;41176;44.032;20.900;2023-09-07T08:42:38;25.90;76.60
50544;DHT22;41176;44.032;20.900;2023-09-07T08:45:04;26.00;77.40
50544;DHT22;41176;44.032;20.900;2023-09-07T08:47:34;26.10;77.10
50544;DHT22;41176;44.032;20.900;2023-09-07T08:50:01;26.20;77.90
50544;DHT22;41176;44.032;20.900;2023-09-07T08:52:27;26.30;78.50
50544;DHT22;41176;44.032;20.900;2023-09-07T08:54:54;26.50;76.70
50544;DHT22;41176;44.032;20.900;2023-09-07T08:57:21;26.70;75.00
50544;DHT22;41176;44.032;20.900;2023-09-07T08:59:48;26.70;75.10
50544;DHT22;41176;44.032;20.900;2023-09-07T09:02:14;26.60;74.90
50544;DHT22;41176;44.032;20.900;2023-09-07T09:04:42;26.70;76.10
50544;DHT22;41176;44.032;20.900;2023-09-07T09:07:07;26.80;75.40
50544;DHT22;41176;44.032;20.900;2023-09-07T09:09:33;26.90;75.60
50544;DHT22;41176;44.032;20.900;2023-09-07T09:12:14;27.00;75.00
50544;DHT22;41176;44.032;20.900;2023-09-07T09:14:44;27.20;74.50
50544;DHT22;41176;44.032;20.900;2023-09-07T09:17:14;27.30;73.00
50544;DHT22;41176;44.032;20.900;2023-09-07T09:19:40;27.30;73.30
50544;DHT22;41176;44.032;20.900;2023-09-07T09:22:09;27.30;72.70
50544;DHT22;41176;44.032;20.900;2023-09-07T09:24:35;27.20;72.00
50544;DHT22;41176;44.032;20.900;2023-09-07T09:27:01;27.10;71.90
50544;DHT22;41176;44.032;20.900;2023-09-07T09:29:27;27.20;70.70
50544;DHT22;41176;44.032;20.900;2023-09-07T09:31:53;27.20;70.30
50544;DHT22;41176;44.032;20.900;2023-09-07T09:34:19;27.20;68.00
50544;DHT22;41176;44.032;20.900;2023-09-07T09:36:45;26.90;68.40
50544;DHT22;41176;44.032;20.900;2023-09-07T09:39:22;26.90;70.30
50544;DHT22;41176;44.032;20.900;2023-09-07T09:41:49;26.90;69.10
50544;DHT22;41176;44.032;20.900;2023-09-07T09:44:16;27.00;71.50
50544;DHT22;41176;44.032;20.900;2023-09-07T09:46:42;27.30;71.10
50544;DHT22;41176;44.032;20.900;2023-09-07T09:49:09;27.30;67.50
50544;DHT22;41176;44.032;20.900;2023-09-07T09:51:37;27.20;70.20
50544;DHT22;41176;44.032;20.900;2023-09-07T09:54:04;27.40;69.70
50544;DHT22;41176;44.032;20.900;2023-09-07T09:56:31;27.10;69.00
50544;DHT22;41176;44.032;20.900;2023-09-07T09:58:57;27.20;68.40
50544;DHT22;41176;44.032;20.900;2023-09-07T10:01:23;27.10;69.90
50544;DHT22;41176;44.032;20.900;2023-09-07T10:03:50;27.30;70.30
50544;DHT22;41176;44.032;20.900;2023-09-07T10:06:22;27.40;70.10
50544;DHT22;41176;44.032;20.900;2023-09-07T10:09:05;27.40;69.10
50544;DHT22;41176;44.032;20.900;2023-09-07T10:11:38;27.40;69.80
50544;DHT22;41176;44.032;20.900;2023-09-07T10:14:05;27.40;68.50
50544;DHT22;41176;44.032;20.900;2023-09-07T10:16:45;27.30;70.60
50544;DHT22;41176;44.032;20.900;2023-09-07T10:19:19;27.20;69.10
50544;DHT22;41176;44.032;20.900;2023-09-07T10:21:45;27.30;69.20
50544;DHT22;41176;44.032;20.900;2023-09-07T10:24:11;27.40;70.50
50544;DHT22;41176;44.032;20.900;2023-09-07T10:26:37;27.40;70.10
50544;DHT22;41176;44.032;20.900;2023-09-07T10:29:03;27.50;67.90
50544;DHT22;41176;44.032;20.900;2023-09-07T10:31:31;27.60;67.80
50544;DHT22;41176;44.032;20.900;2023-09-07T10:34:08;27.40;69.30
50544;DHT22;41176;44.032;20.900;2023-09-07T10:36:36;27.50;69.40
50544;DHT22;41176;44.032;20.900;2023-09-07T10:39:03;27.60;69.60
50544;DHT22;41176;44.032;20.900;2023-09-07T10:41:43;27.60;69.40
50544;DHT22;41176;44.032;20.900;2023-09-07T10:44:09;27.60;67.80
50544;DHT22;41176;44.032;20.900;2023-09-07T10:46:39;27.70;67.60
50544;DHT22;41176;44.032;20.900;2023-09-07T10:49:11;27.70;66.20
50544;DHT22;41176;44.032;20.900;2023-09-07T10:51:41;27.80;65.60
50544;DHT22;41176;44.032;20.900;2023-09-07T10:54:22;27.60;65.70
50544;DHT22;41176;44.032;20.900;2023-09-07T10:56:49;27.50;66.00
50544;DHT22;41176;44.032;20.900;2023-09-07T10:59:16;27.60;68.10
50544;DHT22;41176;44.032;20.900;2023-09-07T11:01:44;27.90;69.30
50544;DHT22;41176;44.032;20.900;2023-09-07T11:04:10;28.10;66.70
50544;DHT22;41176;44.032;20.900;2023-09-07T11:06:40;28.20;65.90
50544;DHT22;41176;44.032;20.900;2023-09-07T11:09:06;28.20;65.00
50544;DHT22;41176;44.032;20.900;2023-09-07T11:11:35;28.10;64.40
50544;DHT22;41176;44.032;20.900;2023-09-07T11:14:05;27.70;65.00
50544;DHT22;41176;44.032;20.900;2023-09-07T11:16:33;27.50;65.90
50544;DHT22;41176;44.032;20.900;2023-09-07T11:19:03;27.50;66.50
50544;DHT22;41176;44.032;20.900;2023-09-07T11:21:30;27.60;65.70
50544;DHT22;41176;44.032;20.900;2023-09-07T11:23:58;27.70;65.90
50544;DHT22;41176;44.032;20.900;2023-09-07T11:26:23;27.70;66.10
50544;DHT22;41176;44.032;20.900;2023-09-07T11:28:49;27.90;64.90
50544;DHT22;41176;44.032;20.900;2023-09-07T11:31:19;27.90;66.20
50544;DHT22;41176;44.032;20.900;2023-09-07T11:33:48;28.00;64.80
50544;DHT22;41176;44.032;20.900;2023-09-07T11:36:15;28.20;64.00
50544;DHT22;41176;44.032;20.900;2023-09-07T11:38:43;28.20;63.60
50544;DHT22;41176;44.032;20.900;2023-09-07T11:41:10;28.20;63.10
50544;DHT22;41176;44.032;20.900;2023-09-07T11:43:36;28.00;65.40
50544;DHT22;41176;44.032;20.900;2023-09-07T11:46:02;28.30;67.10
50544;DHT22;41176;44.032;20.900;2023-09-07T11:48:29;28.50;65.30
50544;DHT22;41176;44.032;20.900;2023-09-07T11:50:55;28.60;63.80
50544;DHT22;41176;44.032;20.900;2023-09-07T11:53:20;28.80;64.00
50544;DHT22;41176;44.032;20.900;2023-09-07T11:55:46;29.00;63.30
50544;DHT22;41176;44.032;20.900;2023-09-07T11:58:12;29.20;64.20
50544;DHT22;41176;44.032;20.900;2023-09-07T12:00:37;29.30;62.40
50544;DHT22;41176;44.032;20.900;2023-09-07T12:03:03;29.30;61.00
50544;DHT22;41176;44.032;20.900;2023-09-07T12:05:29;29.40;62.10
50544;DHT22;41176;44.032;20.900;2023-09-07T12:07:55;29.50;61.90
50544;DHT22;41176;44.032;20.900;2023-09-07T12:10:21;29.50;61.70
50544;DHT22;41176;44.032;20.900;2023-09-07T12:12:47;29.60;60.50
50544;DHT22;41176;44.032;20.900;2023-09-07T12:15:13;29.60;60.00
50544;DHT22;41176;44.032;20.900;2023-09-07T12:17:39;29.70;61.00
50544;DHT22;41176;44.032;20.900;2023-09-07T12:20:06;29.70;60.50
50544;DHT22;41176;44.032;20.900;2023-09-07T12:22:39;29.80;60.30
50544;DHT22;41176;44.032;20.900;2023-09-07T12:25:06;29.90;59.00
50544;DHT22;41176;44.032;20.900;2023-09-07T12:27:35;29.90;60.00
50544;DHT22;41176;44.032;20.900;2023-09-07T12:30:01;29.90;60.00
50544;DHT22;41176;44.032;20.900;2023-09-07T12:32:27;30.00;58.00
50544;DHT22;41176;44.032;20.900;2023-09-07T12:34:53;30.10;59.60
50544;DHT22;41176;44.032;20.900;2023-09-07T12:37:19;30.10;58.20
50544;DHT22;41176;44.032;20.900;2023-09-07T12:39:49;30.10;58.20
50544;DHT22;41176;44.032;20.900;2023-09-07T12:42:15;29.90;58.50
50544;DHT22;41176;44.032;20.900;2023-09-07T12:44:40;30.00;59.40
50544;DHT22;41176;44.032;20.900;2023-09-07T12:47:06;30.00;59.20
50544;DHT22;41176;44.032;20.900;2023-09-07T12:49:32;30.00;57.90
50544;DHT22;41176;44.032;20.900;2023-09-07T12:51:57;30.00;57.70
50544;DHT22;41176;44.032;20.900;2023-09-07T12:54:23;30.00;58.90
50544;DHT22;41176;44.032;20.900;2023-09-07T12:56:49;30.10;56.00
50544;DHT22;41176;44.032;20.900;2023-09-07T12:59:15;30.10;57.50
50544;DHT22;41176;44.032;20.900;2023-09-07T13:01:40;30.10;57.60
50544;DHT22;41176;44.032;20.900;2023-09-07T13:04:06;30.20;56.90
50544;DHT22;41176;44.032;20.900;2023-09-07T13:06:32;30.20;57.00
50544;DHT22;41176;44.032;20.900;2023-09-07T13:08:58;30.00;56.80
50544;DHT22;41176;44.032;20.900;2023-09-07T13:11:23;29.90;54.70
50544;DHT22;41176;44.032;20.900;2023-09-07T13:13:49;30.00;55.40
50544;DHT22;41176;44.032;20.900;2023-09-07T13:16:15;30.10;55.60
50544;DHT22;41176;44.032;20.900;2023-09-07T13:18:41;30.20;55.50
50544;DHT22;41176;44.032;20.900;2023-09-07T13:21:07;30.20;54.40
50544;DHT22;41176;44.032;20.900;2023-09-07T13:23:33;30.20;54.30
50544;DHT22;41176;44.032;20.900;2023-09-07T13:25:59;30.30;54.30
50544;DHT22;41176;44.032;20.900;2023-09-07T13:28:26;30.30;53.60
50544;DHT22;41176;44.032;20.900;2023-09-07T13:30:52;30.30;53.50
50544;DHT22;41176;44.032;20.900;2023-09-07T13:33:18;30.40;53.40
50544;DHT22;41176;44.032;20.900;2023-09-07T13:35:44;30.40;53.80
50544;DHT22;41176;44.032;20.900;2023-09-07T13:38:10;30.40;52.90
50544;DHT22;41176;44.032;20.900;2023-09-07T13:40:36;30.50;54.10
50544;DHT22;41176;44.032;20.900;2023-09-07T13:43:02;30.60;53.90
50544;DHT22;41176;44.032;20.900;2023-09-07T13:45:28;30.70;52.80
50544;DHT22;41176;44.032;20.900;2023-09-07T13:47:56;30.70;51.90
50544;DHT22;41176;44.032;20.900;2023-09-07T13:50:22;30.60;51.20
50544;DHT22;41176;44.032;20.900;2023-09-07T13:52:48;30.60;53.00
50544;DHT22;41176;44.032;20.900;2023-09-07T13:55:14;30.70;52.60
50544;DHT22;41176;44.032;20.900;2023-09-07T13:57:40;30.80;52.30
50544;DHT22;41176;44.032;20.900;2023-09-07T14:00:06;30.90;51.50
50544;DHT22;41176;44.032;20.900;2023-09-07T14:02:32;30.80;51.10
50544;DHT22;41176;44.032;20.900;2023-09-07T14:04:58;30.80;51.60
50544;DHT22;41176;44.032;20.900;2023-09-07T14:07:24;30.90;52.50
50544;DHT22;41176;44.032;20.900;2023-09-07T14:09:54;31.00;52.70
50544;DHT22;41176;44.032;20.900;2023-09-07T14:12:20;31.20;51.40
50544;DHT22;41176;44.032;20.900;2023-09-07T14:14:47;31.50;51.70
50544;DHT22;41176;44.032;20.900;2023-09-07T14:17:13;31.70;51.00
50544;DHT22;41176;44.032;20.900;2023-09-07T14:19:39;32.10;51.20
50544;DHT22;41176;44.032;20.900;2023-09-07T14:22:04;32.40;50.00
50544;DHT22;41176;44.032;20.900;2023-09-07T14:24:30;32.80;48.00
50544;DHT22;41176;44.032;20.900;2023-09-07T14:26:56;33.20;48.30
50544;DHT22;41176;44.032;20.900;2023-09-07T14:29:22;33.50;47.90
50544;DHT22;41176;44.032;20.900;2023-09-07T14:31:47;33.90;47.80
50544;DHT22;41176;44.032;20.900;2023-09-07T14:34:13;34.20;48.50
50544;DHT22;41176;44.032;20.900;2023-09-07T14:36:39;34.20;47.10
50544;DHT22;41176;44.032;20.900;2023-09-07T14:39:08;34.00;47.90
50544;DHT22;41176;44.032;20.900;2023-09-07T14:41:37;33.50;48.30
50544;DHT22;41176;44.032;20.900;2023-09-07T14:44:03;33.10;47.00
50544;DHT22;41176;44.032;20.900;2023-09-07T14:46:29;32.80;48.80
50544;DHT22;41176;44.032;20.900;2023-09-07T14:48:55;32.80;49.60
50544;DHT22;41176;44.032;20.900;2023-09-07T14:51:23;32.70;49.20
50544;DHT22;41176;44.032;20.900;2023-09-07T14:53:48;32.50;50.10
50544;DHT22;41176;44.032;20.900;2023-09-07T14:56:15;32.30;50.40
50544;DHT22;41176;44.032;20.900;2023-09-07T14:58:41;32.20;50.00
50544;DHT22;41176;44.032;20.900;2023-09-07T15:01:07;32.20;50.20
50544;DHT22;41176;44.032;20.900;2023-09-07T15:03:33;32.00;50.20
50544;DHT22;41176;44.032;20.900;2023-09-07T15:05:59;31.80;50.10
50544;DHT22;41176;44.032;20.900;2023-09-07T15:08:25;31.60;51.80
50544;DHT22;41176;44.032;20.900;2023-09-07T15:10:51;31.30;50.60